Urb Corales del Mar, Puerto Rico
Current Conditions -  °F | °C
As of 9:50 AM on Sunday 28 Dec 2014 (Local Time) from TJPS Reporting Station
Few Clouds Few Clouds  
Wind Chill: 84°   Ceiling: Unl
Heat Index: 88°   Visibility: 10mi
Dew Point: 70°   Wind: 0mph
Humidity: 62%   Direction: NA
Pressure: 30.02"   Gusts: NA
Location:  17.9903°N, 66.2815°W
Report Text: TJPS 281350Z 00000KT 10SM FEW025 29/21 A3002
Loading
Personal Weather Stations






























Interactive Weather Map New forecast layout! Learn more

10-Day Weather Forecast

Advertisements
Track Severe Weather on mobile